createdAt,value
2018-06-12T00:02:25.805Z,22.83
2018-06-12T00:04:54.079Z,20.67
2018-06-12T00:07:23.172Z,19.07
2018-06-12T00:09:51.500Z,21.50
2018-06-12T00:12:19.760Z,16.40
2018-06-12T00:14:47.974Z,15.67
2018-06-12T00:17:16.241Z,18.90
2018-06-12T00:19:44.508Z,16.33
2018-06-12T00:22:12.795Z,21.13
2018-06-12T00:24:41.095Z,19.00
2018-06-12T00:27:09.304Z,18.93
2018-06-12T00:29:37.563Z,15.10
2018-06-12T00:32:05.891Z,17.87
2018-06-12T00:34:34.118Z,18.23
2018-06-12T00:37:02.328Z,16.53
2018-06-12T00:39:30.586Z,19.00
2018-06-12T00:41:58.807Z,15.93
2018-06-12T00:44:27.048Z,18.07
2018-06-12T00:46:55.300Z,16.00
2018-06-12T00:49:23.540Z,15.50
2018-06-12T00:51:51.804Z,12.87
2018-06-12T00:54:20.040Z,17.53
2018-06-12T00:56:59.748Z,12.20
2018-06-12T00:59:27.988Z,13.33
2018-06-12T01:01:56.275Z,13.60
2018-06-12T01:04:24.523Z,12.80
2018-06-12T01:06:52.759Z,14.50
2018-06-12T01:09:21.116Z,13.57
2018-06-12T01:11:49.302Z,11.57
2018-06-12T01:14:17.512Z,13.23
2018-06-12T01:16:45.777Z,12.00
2018-06-12T01:19:14.019Z,12.83
2018-06-12T01:21:42.245Z,11.50
2018-06-12T01:24:10.224Z,13.80
2018-06-12T01:26:38.465Z,14.77
2018-06-12T01:29:06.657Z,13.27
2018-06-12T01:31:34.915Z,11.93
2018-06-12T01:34:03.185Z,11.27
2018-06-12T01:36:31.518Z,13.60
2018-06-12T01:38:59.723Z,12.80
2018-06-12T01:41:27.972Z,16.37
2018-06-12T01:43:56.181Z,13.80
2018-06-12T01:46:24.428Z,15.30
2018-06-12T01:48:52.620Z,16.20
2018-06-12T01:51:20.836Z,13.13
2018-06-12T01:53:49.088Z,13.40
2018-06-12T01:56:17.356Z,16.57
2018-06-12T01:58:45.572Z,18.27
2018-06-12T02:01:13.769Z,18.53
2018-06-12T02:03:42.025Z,15.93
2018-06-12T02:06:13.104Z,19.53
2018-06-12T02:08:57.958Z,19.07
2018-06-12T02:14:16.991Z,21.83
2018-06-12T02:16:45.261Z,21.27
2018-06-12T02:19:13.494Z,19.10
2018-06-12T02:21:41.738Z,21.93
2018-06-12T02:24:09.930Z,20.57
2018-06-12T02:26:38.155Z,21.50
2018-06-12T02:29:06.383Z,21.40
2018-06-12T02:31:34.617Z,22.23
2018-06-12T02:34:02.824Z,21.53
2018-06-12T02:36:31.016Z,21.40
2018-06-12T02:38:59.240Z,23.57
2018-06-12T02:41:27.436Z,24.00
2018-06-12T02:43:55.652Z,22.27
2018-06-12T02:46:23.906Z,22.37
2018-06-12T02:48:52.160Z,22.13
2018-06-12T02:51:20.384Z,24.67
2018-06-12T02:53:48.588Z,26.10
2018-06-12T02:56:16.883Z,25.17
2018-06-12T02:58:45.048Z,30.67
2018-06-12T03:01:13.284Z,25.73
2018-06-12T03:03:41.490Z,30.83
2018-06-12T03:06:09.744Z,32.67
2018-06-12T03:08:37.941Z,32.83
2018-06-12T03:11:06.172Z,28.40
2018-06-12T03:13:34.401Z,32.10
2018-06-12T03:16:02.600Z,35.37
2018-06-12T03:18:30.796Z,34.03
2018-06-12T03:20:59.068Z,31.50
2018-06-12T03:23:27.348Z,30.83
2018-06-12T03:25:59.677Z,28.63
2018-06-12T03:28:27.911Z,31.63
2018-06-12T03:30:56.153Z,31.37
2018-06-12T03:33:24.465Z,33.03
2018-06-12T03:35:52.383Z,34.63
2018-06-12T03:38:20.595Z,37.93
2018-06-12T03:40:48.800Z,33.90
2018-06-12T03:43:17.024Z,36.67
2018-06-12T03:45:45.225Z,34.63
2018-06-12T03:48:13.452Z,35.10
2018-06-12T03:50:41.663Z,36.50
2018-06-12T03:53:09.886Z,35.50
2018-06-12T03:55:38.092Z,38.90
2018-06-12T03:58:06.935Z,40.40
2018-06-12T04:00:35.172Z,43.67
2018-06-12T04:03:03.416Z,41.77
2018-06-12T04:05:31.639Z,41.10
2018-06-12T04:07:59.896Z,38.90
2018-06-12T04:10:27.848Z,41.67
2018-06-12T04:12:56.113Z,30.47
2018-06-12T04:15:24.308Z,32.53
2018-06-12T04:17:52.525Z,37.40
2018-06-12T04:20:20.733Z,29.20
2018-06-12T04:22:48.945Z,26.87
2018-06-12T04:25:17.144Z,22.27
2018-06-12T04:27:45.368Z,25.97
2018-06-12T04:30:13.307Z,25.60
2018-06-12T04:32:41.549Z,23.87
2018-06-12T04:35:09.784Z,23.57
2018-06-12T04:37:37.991Z,26.77
2018-06-12T04:40:06.281Z,26.07
2018-06-12T04:42:34.988Z,22.03
2018-06-12T04:45:03.193Z,22.20
2018-06-12T04:47:31.416Z,24.63
2018-06-12T04:49:59.656Z,27.60
2018-06-12T04:52:27.961Z,19.97
2018-06-12T04:54:56.168Z,23.03
2018-06-12T04:57:24.383Z,24.90
2018-06-12T04:59:52.646Z,24.00
2018-06-12T05:02:21.332Z,27.20
2018-06-12T05:04:49.564Z,29.43
2018-06-12T05:07:17.812Z,25.00
2018-06-12T05:09:46.038Z,23.03
2018-06-12T05:12:14.299Z,23.60
2018-06-12T05:14:42.546Z,25.73
2018-06-12T05:17:10.823Z,25.87
2018-06-12T05:19:39.064Z,23.33
2018-06-12T05:22:07.288Z,24.63
2018-06-12T05:24:35.535Z,25.03
2018-06-12T05:27:03.785Z,22.43
2018-06-12T05:29:31.806Z,26.50
2018-06-12T05:32:00.032Z,26.80
2018-06-12T05:34:28.252Z,26.07
2018-06-12T05:36:56.488Z,27.57
2018-06-12T05:39:24.724Z,28.10
2018-06-12T05:41:52.933Z,32.67
2018-06-12T05:44:21.134Z,30.70
2018-06-12T05:46:49.405Z,33.70
2018-06-12T05:49:17.599Z,31.03
2018-06-12T05:51:45.802Z,30.30
2018-06-12T05:54:14.004Z,31.73
2018-06-12T05:56:42.238Z,31.80
2018-06-12T05:59:10.477Z,29.03
2018-06-12T06:01:38.663Z,28.00
2018-06-12T06:04:06.876Z,29.27
2018-06-12T06:06:35.106Z,29.00
2018-06-12T06:09:03.599Z,29.77
2018-06-12T06:11:31.850Z,27.20
2018-06-12T06:14:00.060Z,28.50
2018-06-12T06:16:28.279Z,32.03
2018-06-12T06:18:56.485Z,32.07
2018-06-12T06:21:24.682Z,32.30
2018-06-12T06:23:52.899Z,29.37
2018-06-12T06:26:21.123Z,33.67
2018-06-12T06:28:49.337Z,29.43
2018-06-12T06:31:17.566Z,26.33
2018-06-12T06:33:45.768Z,29.73
2018-06-12T06:36:14.024Z,27.17
2018-06-12T06:38:42.959Z,25.13
2018-06-12T06:41:11.170Z,25.40
2018-06-12T06:43:39.387Z,25.50
2018-06-12T06:46:07.613Z,23.23
2018-06-12T06:48:35.829Z,25.63
2018-06-12T06:51:04.099Z,25.00
2018-06-12T06:53:32.328Z,26.30
2018-06-12T06:56:00.508Z,28.10
2018-06-12T06:58:28.720Z,25.07
2018-06-12T07:00:56.912Z,27.97
2018-06-12T07:03:24.900Z,28.03
2018-06-12T07:05:53.092Z,23.77
2018-06-12T07:08:21.424Z,29.47
2018-06-12T07:10:49.620Z,29.80
2018-06-12T07:13:17.810Z,29.93
2018-06-12T07:15:46.023Z,28.87
2018-06-12T07:18:14.282Z,26.40
2018-06-12T07:21:19.417Z,26.07
2018-06-12T07:23:47.771Z,26.37
2018-06-12T07:26:16.522Z,26.23
2018-06-12T07:28:44.741Z,24.23
2018-06-12T07:31:12.984Z,25.17
2018-06-12T07:33:41.295Z,24.90
2018-06-12T07:36:09.856Z,25.10
2018-06-12T07:38:38.148Z,25.40
2018-06-12T07:41:06.408Z,20.83
2018-06-12T07:43:34.679Z,20.17
2018-06-12T07:46:02.831Z,18.67
2018-06-12T07:48:31.173Z,18.73
2018-06-12T07:50:59.139Z,16.50
2018-06-12T07:53:27.401Z,15.77
2018-06-12T07:55:55.627Z,14.33
2018-06-12T07:58:23.868Z,16.77
2018-06-12T08:00:52.125Z,16.60
2018-06-12T08:03:20.685Z,15.77
2018-06-12T08:05:48.892Z,14.33
2018-06-12T08:08:17.131Z,15.77
2018-06-12T08:10:45.364Z,14.00
2018-06-12T08:13:13.553Z,13.47
2018-06-12T08:15:41.777Z,17.07
2018-06-12T08:18:09.980Z,17.23
2018-06-12T08:20:38.176Z,13.47
2018-06-12T08:23:06.459Z,16.57
2018-06-12T08:25:34.728Z,15.63
2018-06-12T08:28:03.076Z,14.80
2018-06-12T08:30:31.344Z,16.20
2018-06-12T08:32:59.505Z,16.00
2018-06-12T08:35:27.781Z,14.90
2018-06-12T08:37:55.968Z,15.73
2018-06-12T08:40:24.193Z,16.93
2018-06-12T08:42:52.400Z,15.43
2018-06-12T08:45:20.612Z,17.47
2018-06-12T08:47:49.769Z,17.50
2018-06-12T08:50:18.448Z,15.07
2018-06-12T08:52:46.716Z,12.50
2018-06-12T08:55:14.916Z,15.43
2018-06-12T08:57:43.184Z,13.57
2018-06-12T09:00:11.380Z,14.00
2018-06-12T09:02:39.641Z,13.30
2018-06-12T09:05:07.816Z,12.30
2018-06-12T09:07:36.043Z,11.07
2018-06-12T09:10:04.376Z,11.07
2018-06-12T09:12:32.591Z,11.10
2018-06-12T09:15:00.822Z,13.73
2018-06-12T09:17:29.076Z,9.13
2018-06-12T09:19:57.280Z,10.00
2018-06-12T09:22:25.544Z,8.87
2018-06-12T09:24:53.747Z,15.60
2018-06-12T09:27:21.947Z,8.97
2018-06-12T09:29:50.159Z,10.50
2018-06-12T09:32:18.378Z,8.63
2018-06-12T09:34:46.648Z,8.90
2018-06-12T09:37:14.852Z,9.67
2018-06-12T09:39:43.143Z,8.40
2018-06-12T09:42:11.441Z,3.70
2018-06-12T09:44:39.599Z,5.97
2018-06-12T09:47:07.832Z,5.13
2018-06-12T09:49:36.061Z,4.40
2018-06-12T09:52:04.302Z,5.50
2018-06-12T09:54:32.474Z,5.33
2018-06-12T09:57:00.700Z,4.43
2018-06-12T09:59:28.921Z,5.63
2018-06-12T10:01:57.124Z,8.50
2018-06-12T10:04:25.321Z,5.73
2018-06-12T10:06:53.529Z,5.73
2018-06-12T10:09:21.713Z,4.93
2018-06-12T10:11:49.929Z,5.90
2018-06-12T10:14:18.127Z,6.60
2018-06-12T10:16:46.365Z,4.57
2018-06-12T10:19:14.571Z,5.77
2018-06-12T10:21:42.797Z,5.73
2018-06-12T10:24:11.640Z,6.63
2018-06-12T10:26:39.852Z,8.70
2018-06-12T10:29:08.053Z,7.73
2018-06-12T10:31:36.264Z,9.63
2018-06-12T10:34:04.451Z,6.30
2018-06-12T10:36:32.660Z,6.23
2018-06-12T10:39:00.892Z,6.83
2018-06-12T10:41:29.134Z,8.17
2018-06-12T10:43:57.332Z,9.23
2018-06-12T10:46:25.561Z,9.60
2018-06-12T10:48:53.752Z,9.57
2018-06-12T10:51:21.968Z,13.10
2018-06-12T10:53:50.176Z,15.30
2018-06-12T10:56:18.416Z,20.20
2018-06-12T10:58:46.652Z,18.80
2018-06-12T11:01:14.868Z,19.33
2018-06-12T11:03:43.138Z,27.30
2018-06-12T11:06:11.397Z,20.67
2018-06-12T11:08:39.632Z,20.33
2018-06-12T11:11:07.899Z,26.93
2018-06-12T11:13:36.103Z,25.27
2018-06-12T11:16:04.327Z,29.43
2018-06-12T11:18:32.551Z,32.47
2018-06-12T11:21:00.780Z,17.23
2018-06-12T11:23:28.992Z,0.13
2018-06-12T11:25:57.212Z,0.00
2018-06-12T11:28:25.436Z,2.13
2018-06-12T11:30:53.659Z,0.00
2018-06-12T11:33:21.887Z,6.10
2018-06-12T11:35:50.148Z,0.00
2018-06-12T11:38:18.348Z,0.00
2018-06-12T11:40:46.562Z,0.00
2018-06-12T11:43:14.765Z,0.00
2018-06-12T11:45:42.996Z,1.13
2018-06-12T11:48:11.192Z,0.07
2018-06-12T11:50:39.439Z,0.47
2018-06-12T11:53:07.648Z,0.77
2018-06-12T11:55:35.584Z,0.00
2018-06-12T11:58:03.777Z,0.00
2018-06-12T12:00:31.989Z,0.10
2018-06-12T12:03:00.227Z,0.00
2018-06-12T12:05:28.460Z,0.00
2018-06-12T12:07:56.647Z,0.00
2018-06-12T12:10:24.862Z,1.03
2018-06-12T12:12:53.057Z,0.87
2018-06-12T12:15:21.300Z,0.00
2018-06-12T12:17:49.544Z,0.30
2018-06-12T12:20:17.838Z,0.00
2018-06-12T12:22:46.054Z,0.00
2018-06-12T12:25:14.252Z,0.00
2018-06-12T12:27:42.462Z,0.67
2018-06-12T12:30:10.653Z,0.00
2018-06-12T12:32:38.872Z,0.07
2018-06-12T12:35:07.126Z,0.47
2018-06-12T12:37:35.339Z,1.63
2018-06-12T12:40:03.597Z,0.00
2018-06-12T12:42:31.928Z,0.00
2018-06-12T12:45:00.133Z,0.23
2018-06-12T12:47:28.352Z,0.67
2018-06-12T12:49:56.547Z,0.60
2018-06-12T12:52:24.763Z,1.50
2018-06-12T12:54:52.956Z,0.00
2018-06-12T12:57:21.197Z,0.00
2018-06-12T12:59:49.402Z,0.00
2018-06-12T13:02:17.579Z,0.00
2018-06-12T13:04:45.784Z,0.00
2018-06-12T13:07:13.976Z,0.00
2018-06-12T13:09:42.263Z,0.03
2018-06-12T13:12:10.472Z,1.70
2018-06-12T13:14:38.716Z,0.00
2018-06-12T13:17:06.904Z,0.00
2018-06-12T13:19:35.140Z,0.00
2018-06-12T13:22:03.341Z,0.00
2018-06-12T13:24:31.541Z,0.00
2018-06-12T13:26:59.765Z,0.00
2018-06-12T13:29:27.939Z,0.00
2018-06-12T13:31:56.239Z,8.90
2018-06-12T13:34:24.530Z,0.00
2018-06-12T13:36:52.729Z,0.00
2018-06-12T13:39:20.929Z,0.00
2018-06-12T13:41:49.127Z,0.10
2018-06-12T13:44:17.344Z,0.10
2018-06-12T13:46:45.536Z,0.00
2018-06-12T13:49:13.736Z,0.00
2018-06-12T13:51:41.972Z,0.00
2018-06-12T13:54:10.527Z,0.00
2018-06-12T13:56:38.735Z,0.00
2018-06-12T13:59:06.970Z,0.00
2018-06-12T14:01:35.176Z,0.60
2018-06-12T14:04:03.407Z,0.00
2018-06-12T14:06:31.624Z,0.00
2018-06-12T14:08:59.870Z,0.10
2018-06-12T14:11:28.163Z,0.00
2018-06-12T14:13:56.428Z,0.00
2018-06-12T14:16:24.620Z,0.10
2018-06-12T14:18:52.839Z,0.00
2018-06-12T14:21:21.088Z,0.00
2018-06-12T14:23:49.280Z,0.00
2018-06-12T14:26:17.563Z,0.00
2018-06-12T14:28:45.767Z,0.00
2018-06-12T14:31:13.984Z,0.00
2018-06-12T14:33:42.172Z,0.00
2018-06-12T14:36:10.412Z,0.50
2018-06-12T14:38:38.700Z,0.00
2018-06-12T14:41:06.992Z,0.00
2018-06-12T14:43:35.209Z,0.00
2018-06-12T14:46:03.407Z,0.03
2018-06-12T14:48:31.705Z,0.00
2018-06-12T14:50:59.912Z,0.00
2018-06-12T14:53:28.424Z,0.20
2018-06-12T14:55:56.611Z,0.00
2018-06-12T14:58:24.823Z,0.00
2018-06-12T15:00:53.032Z,0.00
2018-06-12T15:03:21.232Z,0.07
2018-06-12T15:05:49.461Z,0.00
2018-06-12T15:08:17.657Z,0.77
2018-06-12T15:10:45.964Z,0.00
2018-06-12T15:13:14.183Z,0.00
2018-06-12T15:15:42.418Z,0.00
2018-06-12T15:18:10.630Z,0.00
2018-06-12T15:20:38.841Z,0.00
2018-06-12T15:23:07.085Z,0.00
2018-06-12T15:25:35.284Z,0.00
2018-06-12T15:28:03.506Z,0.03
2018-06-12T15:30:31.705Z,0.00
2018-06-12T15:32:59.927Z,0.00
2018-06-12T15:35:28.145Z,0.00
2018-06-12T15:37:56.340Z,0.17
2018-06-12T15:40:24.565Z,0.47
2018-06-12T15:42:52.760Z,0.00
2018-06-12T15:45:20.984Z,0.00
2018-06-12T15:47:49.256Z,0.00
2018-06-12T15:50:17.464Z,0.10
2018-06-12T15:52:45.700Z,0.00
2018-06-12T15:55:13.901Z,0.00
2018-06-12T15:57:42.114Z,0.00
2018-06-12T16:00:10.359Z,0.00
2018-06-12T16:02:38.680Z,0.00
2018-06-12T16:05:07.040Z,0.00
2018-06-12T16:07:35.457Z,0.00
2018-06-12T16:10:03.401Z,0.00
2018-06-12T16:12:31.648Z,0.00
2018-06-12T16:15:00.487Z,0.50
2018-06-12T16:17:29.645Z,0.00
2018-06-12T16:19:57.888Z,0.10
2018-06-12T16:22:26.109Z,0.00
2018-06-12T16:24:54.288Z,2.80
2018-06-12T16:27:22.509Z,0.00
2018-06-12T16:29:50.701Z,0.00
2018-06-12T16:32:19.012Z,0.00
2018-06-12T16:34:47.227Z,0.00
2018-06-12T16:37:15.425Z,0.00
2018-06-12T16:39:43.363Z,0.00
2018-06-12T16:42:11.563Z,0.00
2018-06-12T16:44:39.748Z,0.00
2018-06-12T16:47:08.040Z,0.00
2018-06-12T16:49:36.236Z,0.00
2018-06-12T16:52:04.468Z,0.00
2018-06-12T16:54:33.597Z,0.00
2018-06-12T16:57:01.788Z,0.00
2018-06-12T16:59:29.983Z,0.00
2018-06-12T17:01:58.200Z,0.00
2018-06-12T17:04:26.417Z,0.00
2018-06-12T17:06:54.621Z,0.00
2018-06-12T17:09:22.817Z,0.00
2018-06-12T17:11:51.112Z,0.00
2018-06-12T17:14:19.367Z,0.00
2018-06-12T17:16:47.559Z,0.00
2018-06-12T17:19:15.845Z,0.00
2018-06-12T17:21:44.055Z,0.00
2018-06-12T17:24:12.272Z,0.00
2018-06-12T17:26:40.487Z,0.00
2018-06-12T17:29:08.681Z,0.00
2018-06-12T17:31:36.901Z,0.00
2018-06-12T17:34:05.203Z,0.03
2018-06-12T17:36:33.601Z,0.00
2018-06-12T17:39:01.751Z,0.00
2018-06-12T17:41:29.945Z,0.00
2018-06-12T17:43:58.204Z,0.00
2018-06-12T17:46:26.413Z,0.00
2018-06-12T17:48:55.135Z,0.00
2018-06-12T17:51:23.369Z,0.00
2018-06-12T17:53:51.304Z,0.00
2018-06-12T17:56:19.508Z,0.00
2018-06-12T17:58:48.005Z,0.00
2018-06-12T18:01:16.212Z,0.00
2018-06-12T18:03:44.420Z,0.00
2018-06-12T18:06:12.622Z,0.00
2018-06-12T18:08:40.839Z,0.00
2018-06-12T18:11:09.055Z,0.10
2018-06-12T18:13:42.280Z,1.60
2018-06-12T18:16:10.646Z,0.00
2018-06-12T18:18:38.904Z,0.13
2018-06-12T18:21:07.280Z,0.00
2018-06-12T18:23:35.465Z,0.00
2018-06-12T18:26:03.754Z,0.00
2018-06-12T18:28:32.441Z,0.00
2018-06-12T18:31:01.533Z,0.00
2018-06-12T18:33:31.050Z,0.00
2018-06-12T18:36:00.410Z,0.00
2018-06-12T18:38:29.527Z,1.27
2018-06-12T18:40:58.682Z,0.20
2018-06-12T18:43:27.731Z,0.00
2018-06-12T18:45:57.297Z,0.03
2018-06-12T18:48:26.780Z,0.10
2018-06-12T18:50:56.077Z,3.60
2018-06-12T18:53:25.140Z,0.00
2018-06-12T18:55:54.321Z,0.00
2018-06-12T18:58:24.077Z,0.00
2018-06-12T19:00:53.162Z,0.00
2018-06-12T19:03:22.471Z,0.00
2018-06-12T19:05:50.963Z,0.07
2018-06-12T19:08:19.787Z,0.00
2018-06-12T19:10:49.266Z,0.00
2018-06-12T19:13:19.203Z,0.00
2018-06-12T19:15:48.419Z,0.13
2018-06-12T19:18:17.850Z,0.93
2018-06-12T19:20:47.349Z,1.77
2018-06-12T19:23:16.443Z,0.00
2018-06-12T19:25:45.119Z,0.00
2018-06-12T19:28:13.575Z,0.00
2018-06-12T19:30:42.504Z,0.00
2018-06-12T19:33:10.975Z,0.00
2018-06-12T19:35:39.384Z,1.90
2018-06-12T19:38:07.834Z,0.00
2018-06-12T19:40:36.354Z,0.00
2018-06-12T19:43:04.650Z,0.00
2018-06-12T19:45:32.908Z,0.47
2018-06-12T19:48:01.550Z,0.00
2018-06-12T19:50:30.463Z,1.10
2018-06-12T19:52:58.793Z,0.20
2018-06-12T19:55:27.454Z,0.00
2018-06-12T19:57:55.972Z,0.00
2018-06-12T20:00:25.817Z,0.47
2018-06-12T20:02:54.049Z,0.00
2018-06-12T20:05:22.412Z,0.00
2018-06-12T20:07:50.613Z,0.00
2018-06-12T20:10:18.845Z,0.00
2018-06-12T20:12:47.184Z,0.00
2018-06-12T20:15:15.408Z,0.00
2018-06-12T20:17:43.704Z,0.00
2018-06-12T20:20:11.920Z,0.03
2018-06-12T20:22:41.127Z,0.00
2018-06-12T20:25:09.439Z,0.00
2018-06-12T20:27:37.631Z,0.00
2018-06-12T20:30:28.728Z,0.00
2018-06-12T20:32:56.961Z,0.00
2018-06-12T20:35:25.144Z,0.00
2018-06-12T20:37:53.443Z,0.00
2018-06-12T20:40:21.691Z,0.13
2018-06-12T20:42:49.957Z,6.33
2018-06-12T20:45:18.165Z,0.83
2018-06-12T20:47:46.355Z,0.00
2018-06-12T20:50:14.660Z,0.00
2018-06-12T20:52:42.852Z,0.00
2018-06-12T20:55:11.052Z,0.00
2018-06-12T20:57:39.261Z,0.00
2018-06-12T21:00:07.513Z,0.20
2018-06-12T21:02:35.728Z,0.00
2018-06-12T21:05:03.956Z,0.00
2018-06-12T21:07:32.264Z,0.00
2018-06-12T21:10:00.449Z,0.20
2018-06-12T21:12:28.663Z,0.13
2018-06-12T21:14:56.984Z,0.13
2018-06-12T21:17:25.168Z,0.00
2018-06-12T21:19:53.363Z,1.07
2018-06-12T21:22:21.571Z,0.00
2018-06-12T21:24:49.782Z,0.00
2018-06-12T21:27:17.963Z,0.00
2018-06-12T21:29:46.176Z,0.00
2018-06-12T21:32:14.432Z,0.10
2018-06-12T21:34:42.635Z,0.00
2018-06-12T21:37:10.827Z,0.13
2018-06-12T21:39:39.048Z,0.43
2018-06-12T21:42:07.301Z,0.00
2018-06-12T21:44:35.504Z,0.27
2018-06-12T21:47:03.707Z,0.00
2018-06-12T21:49:31.964Z,0.00
2018-06-12T21:52:00.189Z,0.27
2018-06-12T21:54:28.380Z,0.00
2018-06-12T21:56:57.596Z,0.00
2018-06-12T21:59:25.801Z,0.00
2018-06-12T22:01:54.012Z,0.00
2018-06-12T22:04:22.210Z,0.00
2018-06-12T22:06:50.548Z,0.00
2018-06-12T22:09:18.773Z,0.53
2018-06-12T22:11:47.129Z,0.00
2018-06-12T22:14:15.111Z,0.00
2018-06-12T22:16:43.063Z,0.00
2018-06-12T22:19:11.261Z,0.00
2018-06-12T22:21:39.443Z,0.00
2018-06-12T22:24:07.652Z,0.47
2018-06-12T22:26:35.867Z,0.00
2018-06-12T22:29:04.100Z,1.07
2018-06-12T22:31:32.333Z,0.00
2018-06-12T22:34:00.545Z,0.00
2018-06-12T22:36:28.779Z,0.00
2018-06-12T22:38:56.997Z,0.00
2018-06-12T22:41:25.172Z,0.00
2018-06-12T22:43:53.384Z,0.00
2018-06-12T22:46:21.658Z,0.00
2018-06-12T22:48:49.836Z,0.00
2018-06-12T22:51:18.102Z,0.00
2018-06-12T22:53:46.320Z,0.00
2018-06-12T22:56:14.487Z,0.00
2018-06-12T22:58:42.711Z,0.00
2018-06-12T23:01:10.908Z,0.00
2018-06-12T23:03:39.100Z,0.00
2018-06-12T23:06:07.380Z,0.00
2018-06-12T23:08:35.607Z,0.00
2018-06-12T23:11:03.944Z,0.00
2018-06-12T23:13:32.220Z,0.00
2018-06-12T23:16:00.440Z,0.00
2018-06-12T23:18:28.661Z,0.53
2018-06-12T23:22:04.433Z,0.30
2018-06-12T23:24:32.613Z,0.00
2018-06-12T23:27:00.836Z,0.00
2018-06-12T23:29:29.088Z,0.00
2018-06-12T23:31:57.330Z,0.00
2018-06-12T23:34:25.515Z,0.10
2018-06-12T23:36:53.776Z,0.00
2018-06-12T23:39:22.055Z,0.00
2018-06-12T23:41:50.188Z,0.00
2018-06-12T23:44:18.402Z,0.00
2018-06-12T23:46:46.642Z,0.00
2018-06-12T23:49:14.847Z,0.00
2018-06-12T23:51:44.092Z,0.00
2018-06-12T23:54:12.280Z,0.93
2018-06-12T23:56:40.562Z,0.77
2018-06-12T23:59:08.692Z,0.00
